SWR149 LSZH-KJFK
Flight info
| Callsign | SWR149 |
|---|---|
| Flight time | N/A |
| Altitude | 34000 |
| Route | VEBIT T10 TORPA DCT REKLA DCT RLP DCT ROTSI DCT AMODO DCT COHPA UM729 RESMI DCT TABOV DCT PIGOP DCT DITAL UN491 LGL UN502 ARGED DCT SENLO DCT JSY DCT LIZAD DCT LULOX DCT UNLID DCT LIMRI/M083F360 DCT 52N020W 51N030W 50N040W 49N050W DCT JOOPY/N0472F360 N328A TUSKY DCT PLYMM PARCH4 |
| Aircraft | B77W/H-SDE1E2E3FGHIJ2J3J4J5M1RWXY/LB1D1 |
Departure
| Time | 2026-05-05 20:11 |
|---|---|
| Airport | Zürich Airport (LSZH) |
Arrival
| Time | N/A |
|---|---|
| Airport | John F. Kennedy International Airport (KJFK) |
| Time | Latitude | Longitude | Altitude | Speed | Heading |
|---|---|---|---|---|---|
| 2026-05-05 19:31 | 47.46168 | 8.55778 | 1408 ft | 0 kts | 186° |
| 2026-05-05 20:01 | 47.46170 | 8.55778 | 1407 ft | 0 kts | 188° |
| 2026-05-05 20:01 | 47.46183 | 8.55782 | 1407 ft | 2 kts | 184° |
| 2026-05-05 20:02 | 47.46197 | 8.55779 | 1407 ft | 2 kts | 161° |
| 2026-05-05 20:02 | 47.46211 | 8.55770 | 1407 ft | 2 kts | 148° |
| 2026-05-05 20:02 | 47.46222 | 8.55757 | 1407 ft | 2 kts | 134° |
| 2026-05-05 20:02 | 47.46231 | 8.55740 | 1406 ft | 2 kts | 120° |
| 2026-05-05 20:03 | 47.46238 | 8.55720 | 1406 ft | 2 kts | 107° |
| 2026-05-05 20:03 | 47.46240 | 8.55703 | 1406 ft | 0 kts | 96° |
| 2026-05-05 20:03 | 47.46240 | 8.55700 | 1406 ft | 0 kts | 95° |
| 2026-05-05 20:05 | 47.46240 | 8.55703 | 1406 ft | 1 kts | 95° |
| 2026-05-05 20:06 | 47.46237 | 8.55752 | 1406 ft | 7 kts | 95° |
| 2026-05-05 20:06 | 47.46233 | 8.55822 | 1407 ft | 6 kts | 96° |
| 2026-05-05 20:06 | 47.46229 | 8.55879 | 1408 ft | 5 kts | 96° |
| 2026-05-05 20:06 | 47.46224 | 8.55929 | 1409 ft | 5 kts | 106° |
| 2026-05-05 20:07 | 47.46202 | 8.55989 | 1409 ft | 6 kts | 124° |
| 2026-05-05 20:07 | 47.46178 | 8.56031 | 1410 ft | 5 kts | 135° |
| 2026-05-05 20:07 | 47.46143 | 8.56081 | 1411 ft | 8 kts | 136° |
| 2026-05-05 20:07 | 47.46096 | 8.56147 | 1413 ft | 9 kts | 137° |
| 2026-05-05 20:08 | 47.46076 | 8.56174 | 1414 ft | 0 kts | 137° |
| 2026-05-05 20:09 | 47.46039 | 8.56234 | 1415 ft | 13 kts | 124° |
| 2026-05-05 20:09 | 47.46036 | 8.56303 | 1415 ft | 5 kts | 46° |
| 2026-05-05 20:09 | 47.46078 | 8.56330 | 1415 ft | 9 kts | 19° |
| 2026-05-05 20:09 | 47.46133 | 8.56357 | 1415 ft | 12 kts | 17° |
| 2026-05-05 20:10 | 47.46222 | 8.56309 | 1413 ft | 11 kts | 315° |
| 2026-05-05 20:10 | 47.46272 | 8.56237 | 1412 ft | 15 kts | 317° |
| 2026-05-05 20:10 | 47.46455 | 8.55991 | 1406 ft | 71 kts | 318° |
| 2026-05-05 20:10 | 47.47037 | 8.55193 | 1395 ft | 155 kts | 317° |
| 2026-05-05 20:11 | 47.47987 | 8.53912 | 1682 ft | 201 kts | 317° |
| 2026-05-05 20:11 | 47.48997 | 8.52603 | 2846 ft | 196 kts | 322° |
| 2026-05-05 20:11 | 47.50113 | 8.51485 | 3478 ft | 201 kts | 327° |
| 2026-05-05 20:11 | 47.51373 | 8.50384 | 3875 ft | 217 kts | 329° |
| 2026-05-05 20:12 | 47.52628 | 8.49111 | 4401 ft | 224 kts | 311° |
| 2026-05-05 20:12 | 47.53493 | 8.47194 | 4898 ft | 225 kts | 289° |
| 2026-05-05 20:12 | 47.53808 | 8.44962 | 4965 ft | 221 kts | 267° |
| 2026-05-05 20:12 | 47.53509 | 8.42755 | 4971 ft | 219 kts | 245° |
| 2026-05-05 20:13 | 47.52685 | 8.40877 | 4996 ft | 220 kts | 228° |
| 2026-05-05 20:13 | 47.51479 | 8.39464 | 5424 ft | 224 kts | 207° |
| 2026-05-05 20:13 | 47.50071 | 8.38619 | 6296 ft | 220 kts | 201° |
| 2026-05-05 20:13 | 47.48629 | 8.37920 | 7018 ft | 221 kts | 200° |
| 2026-05-05 20:14 | 47.47133 | 8.37295 | 7568 ft | 231 kts | 196° |
| 2026-05-05 20:14 | 47.45498 | 8.36729 | 7965 ft | 248 kts | 197° |
| 2026-05-05 20:14 | 47.43908 | 8.35613 | 8321 ft | 264 kts | 222° |
| 2026-05-05 20:14 | 47.42851 | 8.33410 | 8839 ft | 275 kts | 250° |
| 2026-05-05 20:15 | 47.42349 | 8.30863 | 9660 ft | 275 kts | 254° |
| 2026-05-05 20:15 | 47.42078 | 8.29310 | 10113 ft | 275 kts | 254° |
| 2026-05-05 20:15 | 47.41916 | 8.28370 | 10360 ft | 277 kts | 254° |
| 2026-05-05 20:15 | 47.41272 | 8.24637 | 11321 ft | 283 kts | 254° |
| 2026-05-05 20:16 | 47.40784 | 8.21812 | 11816 ft | 287 kts | 254° |
| 2026-05-05 20:16 | 47.40290 | 8.18956 | 11894 ft | 297 kts | 254° |
| 2026-05-05 20:16 | 47.39753 | 8.15866 | 12173 ft | 318 kts | 254° |
| 2026-05-05 20:16 | 47.39191 | 8.12639 | 12627 ft | 335 kts | 254° |
| 2026-05-05 20:17 | 47.38600 | 8.09240 | 13120 ft | 349 kts | 254° |
| 2026-05-05 20:17 | 47.37996 | 8.05753 | 13652 ft | 363 kts | 256° |
| 2026-05-05 20:17 | 47.37659 | 8.01974 | 14177 ft | 378 kts | 267° |
| 2026-05-05 20:17 | 47.37831 | 7.98079 | 14942 ft | 385 kts | 274° |
| 2026-05-05 20:18 | 47.38143 | 7.94216 | 15786 ft | 388 kts | 275° |
| 2026-05-05 20:18 | 47.38468 | 7.90241 | 16560 ft | 394 kts | 275° |
| 2026-05-05 20:18 | 47.38795 | 7.86211 | 17309 ft | 399 kts | 274° |
| 2026-05-05 20:18 | 47.39127 | 7.82129 | 18114 ft | 403 kts | 274° |
| 2026-05-05 20:19 | 47.39458 | 7.78024 | 18896 ft | 407 kts | 274° |
| 2026-05-05 20:19 | 47.39790 | 7.73892 | 19681 ft | 411 kts | 274° |
| 2026-05-05 20:19 | 47.40126 | 7.69688 | 20474 ft | 414 kts | 274° |
| 2026-05-05 20:19 | 47.40461 | 7.65484 | 21205 ft | 418 kts | 274° |
| 2026-05-05 20:20 | 47.40801 | 7.61185 | 21894 ft | 423 kts | 274° |
| 2026-05-05 20:20 | 47.41139 | 7.56890 | 22587 ft | 426 kts | 274° |
| 2026-05-05 20:20 | 47.41481 | 7.52532 | 23270 ft | 430 kts | 274° |
| 2026-05-05 20:20 | 47.41819 | 7.48208 | 23916 ft | 434 kts | 274° |
| 2026-05-05 20:21 | 47.42167 | 7.43724 | 24579 ft | 437 kts | 274° |
| 2026-05-05 20:21 | 47.42508 | 7.39320 | 25247 ft | 440 kts | 274° |
| 2026-05-05 20:21 | 47.42852 | 7.34836 | 25803 ft | 445 kts | 273° |
| 2026-05-05 20:21 | 47.43200 | 7.30294 | 26302 ft | 450 kts | 273° |
| 2026-05-05 20:22 | 47.43547 | 7.25721 | 26872 ft | 454 kts | 273° |
| 2026-05-05 20:22 | 47.43899 | 7.21093 | 27508 ft | 455 kts | 273° |
| 2026-05-05 20:22 | 47.44481 | 7.16457 | 28031 ft | 464 kts | 281° |
| 2026-05-05 20:22 | 47.45486 | 7.11942 | 28425 ft | 472 kts | 286° |
| 2026-05-05 20:23 | 47.46616 | 7.07418 | 28919 ft | 477 kts | 287° |
| 2026-05-05 20:23 | 47.47775 | 7.02798 | 29535 ft | 478 kts | 287° |
| 2026-05-05 20:23 | 47.48919 | 6.98231 | 30283 ft | 476 kts | 287° |
| 2026-05-05 20:23 | 47.50057 | 6.93681 | 31044 ft | 472 kts | 287° |
| 2026-05-05 20:24 | 47.51191 | 6.89134 | 31678 ft | 469 kts | 286° |
| 2026-05-05 20:24 | 47.52315 | 6.84620 | 32223 ft | 468 kts | 287° |
| 2026-05-05 20:24 | 47.53434 | 6.80116 | 32642 ft | 467 kts | 287° |
| 2026-05-05 20:24 | 47.54540 | 6.75654 | 33016 ft | 467 kts | 287° |
| 2026-05-05 20:25 | 47.55656 | 6.71144 | 33363 ft | 467 kts | 287° |
| 2026-05-05 20:25 | 47.56769 | 6.66635 | 33699 ft | 467 kts | 287° |
| 2026-05-05 20:25 | 47.57877 | 6.62137 | 33848 ft | 470 kts | 287° |
| 2026-05-05 20:26 | 47.60104 | 6.53073 | 33878 ft | 466 kts | 287° |
| 2026-05-05 20:26 | 47.62297 | 6.44112 | 33869 ft | 468 kts | 287° |
| 2026-05-05 20:27 | 47.64504 | 6.35055 | 33881 ft | 467 kts | 287° |
| 2026-05-05 20:27 | 47.66695 | 6.26025 | 33877 ft | 467 kts | 286° |
| 2026-05-05 20:28 | 47.68870 | 6.17027 | 33867 ft | 469 kts | 286° |
| 2026-05-05 20:28 | 47.70990 | 6.07892 | 33889 ft | 469 kts | 285° |
| 2026-05-05 20:29 | 47.73037 | 5.98710 | 33875 ft | 469 kts | 285° |
| 2026-05-05 20:29 | 47.75071 | 5.89543 | 33887 ft | 470 kts | 285° |
| 2026-05-05 20:30 | 47.77107 | 5.80324 | 33880 ft | 470 kts | 285° |
| 2026-05-05 20:30 | 47.79123 | 5.71157 | 33886 ft | 470 kts | 285° |
| 2026-05-05 20:31 | 47.81143 | 5.61930 | 33877 ft | 472 kts | 285° |
| 2026-05-05 20:31 | 47.83162 | 5.52668 | 33876 ft | 472 kts | 285° |
| 2026-05-05 20:32 | 47.85178 | 5.43382 | 33872 ft | 472 kts | 285° |
| 2026-05-05 20:32 | 47.87187 | 5.34080 | 33861 ft | 473 kts | 285° |
| 2026-05-05 20:33 | 47.89190 | 5.24768 | 33865 ft | 473 kts | 285° |
| 2026-05-05 20:33 | 47.91161 | 5.15560 | 33841 ft | 473 kts | 285° |
| 2026-05-05 20:34 | 47.93148 | 5.06240 | 33859 ft | 474 kts | 285° |
| 2026-05-05 20:34 | 47.95140 | 4.96849 | 33848 ft | 473 kts | 285° |
| 2026-05-05 20:35 | 47.97113 | 4.87504 | 33842 ft | 474 kts | 285° |
| 2026-05-05 20:35 | 47.99066 | 4.78214 | 33840 ft | 474 kts | 285° |
| 2026-05-05 20:36 | 48.01038 | 4.68790 | 33841 ft | 477 kts | 285° |
| 2026-05-05 20:36 | 48.03007 | 4.59336 | 33840 ft | 477 kts | 285° |
| 2026-05-05 20:37 | 48.04958 | 4.49924 | 33844 ft | 477 kts | 285° |
| 2026-05-05 20:37 | 48.06900 | 4.40508 | 33828 ft | 478 kts | 285° |
| 2026-05-05 20:38 | 48.08830 | 4.31113 | 33837 ft | 478 kts | 285° |
| 2026-05-05 20:38 | 48.10770 | 4.21618 | 33823 ft | 478 kts | 285° |
| 2026-05-05 20:39 | 48.12657 | 4.12343 | 33826 ft | 478 kts | 285° |
| 2026-05-05 20:39 | 48.14243 | 4.04513 | 33809 ft | 478 kts | 285° |
| 2026-05-05 20:40 | 48.16439 | 3.93613 | 33834 ft | 480 kts | 285° |
| 2026-05-05 20:40 | 48.18341 | 3.84128 | 33802 ft | 480 kts | 285° |
| 2026-05-05 20:41 | 48.20256 | 3.74532 | 33826 ft | 481 kts | 285° |
| 2026-05-05 20:41 | 48.22150 | 3.64994 | 33810 ft | 480 kts | 285° |
| 2026-05-05 20:42 | 48.24043 | 3.55415 | 33824 ft | 481 kts | 285° |
| 2026-05-05 20:42 | 48.25931 | 3.45814 | 33806 ft | 481 kts | 285° |
| 2026-05-05 20:43 | 48.27808 | 3.36218 | 33830 ft | 481 kts | 285° |
| 2026-05-05 20:43 | 48.29650 | 3.26756 | 33839 ft | 483 kts | 285° |
| 2026-05-05 20:44 | 48.31501 | 3.17201 | 33838 ft | 482 kts | 285° |
| 2026-05-05 20:44 | 48.33368 | 3.07514 | 33815 ft | 483 kts | 285° |
| 2026-05-05 20:45 | 48.36153 | 2.92971 | 33857 ft | 483 kts | 285° |
| 2026-05-05 20:45 | 48.37987 | 2.83334 | 33836 ft | 482 kts | 285° |
| 2026-05-05 20:46 | 48.39818 | 2.73663 | 33837 ft | 484 kts | 285° |
| 2026-05-05 20:46 | 48.41651 | 2.63933 | 33840 ft | 484 kts | 285° |
| 2026-05-05 20:47 | 48.43480 | 2.54167 | 33833 ft | 485 kts | 285° |
| 2026-05-05 20:47 | 48.45296 | 2.44428 | 33848 ft | 485 kts | 285° |
| 2026-05-05 20:48 | 48.47098 | 2.34708 | 33834 ft | 486 kts | 284° |
| 2026-05-05 20:48 | 48.48916 | 2.24848 | 33850 ft | 486 kts | 285° |
| 2026-05-05 20:49 | 48.50710 | 2.15069 | 33834 ft | 487 kts | 285° |
| 2026-05-05 20:49 | 48.52500 | 2.05263 | 33846 ft | 488 kts | 285° |
| 2026-05-05 20:50 | 48.53991 | 1.97050 | 33861 ft | 488 kts | 285° |
| 2026-05-05 20:50 | 48.56060 | 1.85595 | 33848 ft | 487 kts | 285° |
| 2026-05-05 20:51 | 48.57818 | 1.75803 | 33859 ft | 488 kts | 285° |
| 2026-05-05 20:51 | 48.59585 | 1.65908 | 33842 ft | 487 kts | 285° |
| 2026-05-05 20:52 | 48.61342 | 1.56012 | 33841 ft | 490 kts | 285° |
| 2026-05-05 20:52 | 48.63087 | 1.46133 | 33850 ft | 488 kts | 285° |
| 2026-05-05 20:53 | 48.64819 | 1.36277 | 33855 ft | 487 kts | 285° |
| 2026-05-05 20:53 | 48.66505 | 1.26621 | 33844 ft | 488 kts | 284° |
| 2026-05-05 20:54 | 48.68238 | 1.16648 | 33852 ft | 488 kts | 284° |
| 2026-05-05 20:54 | 48.69944 | 1.06770 | 33853 ft | 489 kts | 284° |
| 2026-05-05 20:55 | 48.71653 | 0.96824 | 33855 ft | 488 kts | 284° |
| 2026-05-05 20:55 | 48.73346 | 0.86912 | 33862 ft | 487 kts | 284° |
| 2026-05-05 20:56 | 48.75023 | 0.77037 | 33882 ft | 487 kts | 284° |
| 2026-05-05 20:56 | 48.76700 | 0.67103 | 33876 ft | 488 kts | 284° |
| 2026-05-05 20:57 | 48.78363 | 0.57201 | 33889 ft | 487 kts | 284° |
| 2026-05-05 20:57 | 48.80077 | 0.47283 | 33892 ft | 487 kts | 286° |
| 2026-05-05 20:58 | 48.81885 | 0.37363 | 33894 ft | 488 kts | 286° |
| 2026-05-05 20:58 | 48.83619 | 0.27780 | 33890 ft | 487 kts | 285° |
| 2026-05-05 20:59 | 48.85373 | 0.18014 | 33896 ft | 485 kts | 285° |
| 2026-05-05 20:59 | 48.87143 | 0.08091 | 33906 ft | 485 kts | 285° |
| 2026-05-05 21:00 | 48.88891 | -0.01762 | 33901 ft | 484 kts | 285° |
| 2026-05-05 21:00 | 48.90624 | -0.11595 | 33908 ft | 485 kts | 285° |
| 2026-05-05 21:01 | 48.92360 | -0.21498 | 33911 ft | 485 kts | 285° |
| 2026-05-05 21:01 | 48.94065 | -0.31395 | 33914 ft | 485 kts | 285° |
| 2026-05-05 21:02 | 48.95729 | -0.41269 | 33924 ft | 483 kts | 285° |
| 2026-05-05 21:02 | 48.97383 | -0.51128 | 33924 ft | 482 kts | 285° |
| 2026-05-05 21:03 | 48.99023 | -0.60959 | 33925 ft | 483 kts | 285° |
| 2026-05-05 21:03 | 49.02160 | -0.79913 | 33935 ft | 482 kts | 284° |
| 2026-05-05 21:04 | 49.04863 | -0.96416 | 33949 ft | 481 kts | 284° |
| 2026-05-05 21:04 | 49.07558 | -1.13030 | 33947 ft | 480 kts | 284° |
| 2026-05-05 21:05 | 49.10238 | -1.29597 | 33947 ft | 480 kts | 284° |
| 2026-05-05 21:05 | 49.12858 | -1.45858 | 33952 ft | 479 kts | 284° |
| 2026-05-05 21:06 | 49.15506 | -1.62459 | 33954 ft | 477 kts | 284° |
| 2026-05-05 21:06 | 49.18078 | -1.78748 | 33953 ft | 477 kts | 284° |
| 2026-05-05 21:07 | 49.20670 | -1.95333 | 33950 ft | 475 kts | 284° |
| 2026-05-05 21:07 | 49.23298 | -2.11843 | 33961 ft | 475 kts | 285° |
| 2026-05-05 21:08 | 49.26128 | -2.28244 | 33966 ft | 475 kts | 285° |
| 2026-05-05 21:08 | 49.28942 | -2.44739 | 33970 ft | 474 kts | 285° |
| 2026-05-05 21:09 | 49.31708 | -2.61144 | 33969 ft | 474 kts | 285° |
| 2026-05-05 21:09 | 49.33587 | -2.72390 | 33968 ft | 476 kts | 284° |
| 2026-05-05 21:10 | 49.35151 | -2.81808 | 33971 ft | 474 kts | 284° |
| 2026-05-05 21:10 | 49.37045 | -2.93298 | 33969 ft | 474 kts | 284° |
| 2026-05-05 21:11 | 49.39769 | -3.09972 | 33973 ft | 469 kts | 284° |
| 2026-05-05 21:11 | 49.42443 | -3.26505 | 33977 ft | 469 kts | 284° |
| 2026-05-05 21:12 | 49.45126 | -3.43265 | 33982 ft | 472 kts | 284° |
| 2026-05-05 21:12 | 49.47772 | -3.59960 | 33978 ft | 471 kts | 284° |
| 2026-05-05 21:13 | 49.50407 | -3.76758 | 33984 ft | 471 kts | 283° |
| 2026-05-05 21:13 | 49.52988 | -3.93387 | 33990 ft | 469 kts | 283° |
| 2026-05-05 21:14 | 49.55560 | -4.10123 | 33999 ft | 468 kts | 283° |
| 2026-05-05 21:14 | 49.58103 | -4.26851 | 34003 ft | 468 kts | 284° |
| 2026-05-05 21:15 | 49.61055 | -4.43373 | 34020 ft | 467 kts | 291° |
| 2026-05-05 21:15 | 49.64890 | -4.59487 | 33982 ft | 467 kts | 291° |
| 2026-05-05 21:16 | 49.68644 | -4.75607 | 33996 ft | 467 kts | 290° |
| 2026-05-05 21:16 | 49.72365 | -4.91870 | 34008 ft | 468 kts | 290° |
| 2026-05-05 21:17 | 49.76024 | -5.08085 | 34009 ft | 467 kts | 290° |
| 2026-05-05 21:17 | 49.79635 | -5.24270 | 34006 ft | 466 kts | 290° |
| 2026-05-05 21:18 | 49.83230 | -5.40540 | 34020 ft | 464 kts | 290° |
| 2026-05-05 21:18 | 49.86773 | -5.56724 | 34033 ft | 463 kts | 291° |
| 2026-05-05 21:19 | 49.90280 | -5.72878 | 34030 ft | 465 kts | 290° |
| 2026-05-05 21:19 | 49.93783 | -5.89148 | 34050 ft | 464 kts | 290° |
| 2026-05-05 21:20 | 49.97283 | -6.05539 | 34048 ft | 466 kts | 290° |
| 2026-05-05 21:20 | 50.00734 | -6.21832 | 34053 ft | 464 kts | 290° |
| 2026-05-05 21:21 | 50.04163 | -6.38157 | 34055 ft | 462 kts | 290° |
| 2026-05-05 21:21 | 50.07561 | -6.54468 | 34064 ft | 461 kts | 290° |
| 2026-05-05 21:22 | 50.10921 | -6.70730 | 34072 ft | 461 kts | 289° |
| 2026-05-05 21:22 | 50.14271 | -6.87073 | 34075 ft | 460 kts | 288° |
| 2026-05-05 21:23 | 50.17578 | -7.03344 | 34079 ft | 459 kts | 288° |
| 2026-05-05 21:23 | 50.20891 | -7.19777 | 34082 ft | 458 kts | 288° |
| 2026-05-05 21:24 | 50.24143 | -7.36043 | 34079 ft | 459 kts | 288° |
| 2026-05-05 21:24 | 50.27374 | -7.52341 | 34079 ft | 458 kts | 288° |
| 2026-05-05 21:25 | 50.30566 | -7.68582 | 34079 ft | 459 kts | 287° |
| 2026-05-05 21:25 | 50.33772 | -7.85033 | 34081 ft | 458 kts | 287° |
| 2026-05-05 21:26 | 50.37283 | -8.01373 | 34077 ft | 456 kts | 296° |
| 2026-05-05 21:26 | 50.42156 | -8.16664 | 34078 ft | 456 kts | 297° |
| 2026-05-05 21:27 | 50.47058 | -8.31902 | 34079 ft | 456 kts | 297° |
| 2026-05-05 21:27 | 50.51938 | -8.47135 | 34080 ft | 456 kts | 297° |
| 2026-05-05 21:28 | 50.56832 | -8.62479 | 34078 ft | 455 kts | 297° |
| 2026-05-05 21:28 | 50.61677 | -8.77755 | 34082 ft | 455 kts | 297° |
| 2026-05-05 21:29 | 50.66495 | -8.93030 | 34090 ft | 455 kts | 297° |
| 2026-05-05 21:29 | 50.71315 | -9.08405 | 34072 ft | 454 kts | 297° |
| 2026-05-05 21:30 | 50.76129 | -9.23855 | 34085 ft | 455 kts | 297° |
| 2026-05-05 21:30 | 50.80874 | -9.39178 | 34084 ft | 456 kts | 296° |
| 2026-05-05 21:31 | 50.85661 | -9.54737 | 34087 ft | 455 kts | 296° |
| 2026-05-05 21:31 | 50.90538 | -9.70688 | 34089 ft | 455 kts | 296° |
| 2026-05-05 21:32 | 50.95290 | -9.86327 | 34091 ft | 454 kts | 296° |
| 2026-05-05 21:32 | 50.99969 | -10.01830 | 34097 ft | 455 kts | 296° |
| 2026-05-05 21:33 | 51.04625 | -10.17355 | 34096 ft | 454 kts | 295° |
| 2026-05-05 21:33 | 51.09290 | -10.33006 | 34101 ft | 454 kts | 295° |
| 2026-05-05 21:34 | 51.13811 | -10.48278 | 34105 ft | 454 kts | 295° |
| 2026-05-05 21:34 | 51.18401 | -10.63881 | 34105 ft | 453 kts | 295° |
| 2026-05-05 21:35 | 51.22323 | -10.80116 | 34104 ft | 453 kts | 288° |
| 2026-05-05 21:35 | 51.25742 | -10.96456 | 34117 ft | 452 kts | 288° |
| 2026-05-05 21:36 | 51.29158 | -11.13062 | 34117 ft | 451 kts | 288° |
| 2026-05-05 21:36 | 51.32510 | -11.29573 | 34116 ft | 452 kts | 288° |
| 2026-05-05 21:37 | 51.35809 | -11.46002 | 34116 ft | 450 kts | 288° |
| 2026-05-05 21:37 | 51.39062 | -11.62375 | 34114 ft | 449 kts | 288° |
| 2026-05-05 21:38 | 51.42310 | -11.78874 | 34118 ft | 448 kts | 287° |
| 2026-05-05 21:38 | 51.45499 | -11.95225 | 34113 ft | 449 kts | 287° |
| 2026-05-05 21:39 | 51.48700 | -12.11783 | 34116 ft | 449 kts | 287° |
| 2026-05-05 21:39 | 51.51860 | -12.28282 | 34122 ft | 450 kts | 287° |
| 2026-05-05 21:40 | 51.54997 | -12.44801 | 34120 ft | 448 kts | 287° |
| 2026-05-05 21:40 | 51.58096 | -12.61265 | 34127 ft | 449 kts | 287° |
| 2026-05-05 21:41 | 51.61247 | -12.78159 | 34135 ft | 449 kts | 286° |
| 2026-05-05 21:41 | 51.64329 | -12.94837 | 34131 ft | 449 kts | 285° |
| 2026-05-05 21:42 | 51.67450 | -13.11875 | 34127 ft | 449 kts | 286° |
| 2026-05-05 21:42 | 51.70540 | -13.28903 | 34134 ft | 448 kts | 286° |
| 2026-05-05 21:43 | 51.73558 | -13.45695 | 34131 ft | 448 kts | 286° |
| 2026-05-05 21:43 | 51.76541 | -13.62447 | 34128 ft | 448 kts | 286° |
| 2026-05-05 21:44 | 51.79537 | -13.79423 | 34124 ft | 449 kts | 285° |
| 2026-05-05 21:44 | 51.82477 | -13.96243 | 34135 ft | 447 kts | 285° |
| 2026-05-05 21:45 | 51.85394 | -14.13094 | 34132 ft | 447 kts | 285° |
| 2026-05-05 21:45 | 51.88283 | -14.29943 | 34140 ft | 446 kts | 285° |
| 2026-05-05 21:46 | 51.91136 | -14.46744 | 34145 ft | 446 kts | 285° |
| 2026-05-05 21:46 | 51.93962 | -14.63545 | 34146 ft | 445 kts | 285° |
| 2026-05-05 21:47 | 51.96777 | -14.80446 | 34156 ft | 445 kts | 284° |
| 2026-05-05 21:47 | 51.99125 | -14.97456 | 34159 ft | 445 kts | 275° |
| 2026-05-05 21:48 | 51.99826 | -15.14604 | 34147 ft | 447 kts | 274° |
| 2026-05-05 21:48 | 52.00348 | -15.31939 | 34395 ft | 453 kts | 273° |
| 2026-05-05 21:49 | 52.00571 | -15.40698 | 35179 ft | 449 kts | 273° |
| 2026-05-05 21:49 | 52.00769 | -15.49286 | 35916 ft | 445 kts | 273° |
| 2026-05-05 21:49 | 52.00951 | -15.57913 | 36169 ft | 448 kts | 273° |
| 2026-05-05 21:49 | 52.01119 | -15.66598 | 36159 ft | 448 kts | 272° |
| 2026-05-05 21:50 | 52.01415 | -15.83847 | 36169 ft | 448 kts | 272° |
| 2026-05-05 21:50 | 52.01671 | -16.01184 | 36176 ft | 448 kts | 272° |
| 2026-05-05 21:51 | 52.01892 | -16.18576 | 36170 ft | 447 kts | 272° |
| 2026-05-05 21:51 | 52.02081 | -16.35910 | 36175 ft | 448 kts | 272° |
| 2026-05-05 21:52 | 52.02310 | -16.61814 | 36180 ft | 448 kts | 272° |
| 2026-05-05 21:53 | 52.02430 | -16.79207 | 36187 ft | 450 kts | 272° |
| 2026-05-05 21:53 | 52.02523 | -16.96560 | 36185 ft | 451 kts | 272° |
| 2026-05-05 21:54 | 52.02590 | -17.14014 | 36194 ft | 452 kts | 272° |
| 2026-05-05 21:54 | 52.02631 | -17.31426 | 36193 ft | 452 kts | 272° |
| 2026-05-05 21:55 | 52.02645 | -17.48872 | 36189 ft | 452 kts | 272° |
| 2026-05-05 21:55 | 52.02634 | -17.66237 | 36193 ft | 452 kts | 272° |
| 2026-05-05 21:56 | 52.02598 | -17.83679 | 36197 ft | 453 kts | 272° |
| 2026-05-05 21:56 | 52.02535 | -18.01128 | 36194 ft | 453 kts | 272° |
| 2026-05-05 21:57 | 52.02447 | -18.18597 | 36193 ft | 454 kts | 272° |
| 2026-05-05 21:57 | 52.02332 | -18.36128 | 36195 ft | 455 kts | 272° |
| 2026-05-05 21:58 | 52.02190 | -18.53745 | 36194 ft | 454 kts | 272° |
| 2026-05-05 21:58 | 52.02023 | -18.71291 | 36202 ft | 455 kts | 272° |
| 2026-05-05 21:59 | 52.01830 | -18.88833 | 36191 ft | 455 kts | 272° |
| 2026-05-05 21:59 | 52.01609 | -19.06466 | 36200 ft | 456 kts | 272° |
| 2026-05-05 22:00 | 52.01363 | -19.24036 | 36197 ft | 455 kts | 272° |
| 2026-05-05 22:00 | 52.01091 | -19.41616 | 36192 ft | 456 kts | 272° |
| 2026-05-05 22:01 | 52.00794 | -19.59152 | 36193 ft | 457 kts | 272° |
| 2026-05-05 22:01 | 52.00467 | -19.76843 | 36198 ft | 458 kts | 271° |
| 2026-05-05 22:02 | 52.00114 | -19.94486 | 36194 ft | 458 kts | 271° |
| 2026-05-05 22:02 | 51.99243 | -20.12245 | 36195 ft | 460 kts | 269° |
| 2026-05-05 22:03 | 51.98055 | -20.33315 | 36203 ft | 458 kts | 269° |
| 2026-05-05 22:03 | 51.96553 | -20.58742 | 36205 ft | 460 kts | 269° |
| 2026-05-05 22:04 | 51.94964 | -20.84571 | 36223 ft | 472 kts | 268° |
| 2026-05-05 22:04 | 51.93272 | -21.10900 | 36216 ft | 472 kts | 268° |
| 2026-05-05 22:04 | 51.92411 | -21.23863 | 36216 ft | 461 kts | 268° |
| 2026-05-05 22:05 | 51.91560 | -21.36496 | 36231 ft | 457 kts | 269° |
| 2026-05-05 22:05 | 51.89816 | -21.61999 | 36227 ft | 469 kts | 269° |
| 2026-05-05 22:06 | 51.87960 | -21.88121 | 35949 ft | 470 kts | 268° |
| 2026-05-05 22:06 | 51.87020 | -22.00968 | 36339 ft | 460 kts | 268° |
| 2026-05-05 22:06 | 51.86093 | -22.13556 | 36210 ft | 466 kts | 268° |
| 2026-05-05 22:07 | 51.84129 | -22.39643 | 36226 ft | 473 kts | 268° |
| 2026-05-05 22:07 | 51.82128 | -22.65255 | 36272 ft | 458 kts | 268° |
| 2026-05-05 22:08 | 51.80106 | -22.90613 | 36238 ft | 469 kts | 268° |
| 2026-05-05 22:08 | 51.77972 | -23.16532 | 36244 ft | 465 kts | 268° |
| 2026-05-05 22:09 | 51.75844 | -23.41668 | 36270 ft | 459 kts | 268° |
| 2026-05-05 22:09 | 51.73638 | -23.67189 | 36249 ft | 469 kts | 267° |
| 2026-05-05 22:10 | 51.71362 | -23.92689 | 36251 ft | 456 kts | 267° |
| 2026-05-05 22:10 | 51.69083 | -24.17710 | 36232 ft | 461 kts | 267° |
| 2026-05-05 22:11 | 51.66723 | -24.42989 | 36250 ft | 462 kts | 266° |
| 2026-05-05 22:11 | 51.64331 | -24.67916 | 36245 ft | 452 kts | 266° |
| 2026-05-05 22:12 | 51.61904 | -24.92793 | 36246 ft | 464 kts | 265° |
| 2026-05-05 22:12 | 51.59371 | -25.18043 | 36254 ft | 455 kts | 265° |
| 2026-05-05 22:13 | 51.56852 | -25.42652 | 36244 ft | 455 kts | 265° |
| 2026-05-05 22:13 | 51.54245 | -25.67616 | 36246 ft | 462 kts | 264° |
| 2026-05-05 22:14 | 51.51585 | -25.92467 | 36252 ft | 449 kts | 264° |
| 2026-05-05 22:14 | 51.48919 | -26.16945 | 36261 ft | 459 kts | 263° |
| 2026-05-05 22:15 | 51.46142 | -26.41886 | 36249 ft | 453 kts | 263° |
| 2026-05-05 22:15 | 51.43389 | -26.66127 | 36256 ft | 450 kts | 262° |
| 2026-05-05 22:16 | 51.40540 | -26.90778 | 36256 ft | 458 kts | 262° |
| 2026-05-05 22:16 | 51.37636 | -27.15365 | 36246 ft | 446 kts | 262° |
| 2026-05-05 22:17 | 51.34746 | -27.39426 | 36256 ft | 454 kts | 261° |
| 2026-05-05 22:17 | 51.31732 | -27.64048 | 36242 ft | 453 kts | 261° |
| 2026-05-05 22:18 | 51.28737 | -27.88061 | 36251 ft | 444 kts | 260° |
| 2026-05-05 22:18 | 51.25680 | -28.12169 | 36234 ft | 455 kts | 259° |
| 2026-05-05 22:19 | 51.22552 | -28.36387 | 36227 ft | 445 kts | 259° |
| 2026-05-05 22:19 | 51.19437 | -28.60106 | 36224 ft | 445 kts | 259° |
| 2026-05-05 22:20 | 51.16221 | -28.84200 | 36224 ft | 450 kts | 258° |
| 2026-05-05 22:20 | 51.13000 | -29.07911 | 36216 ft | 438 kts | 258° |
| 2026-05-05 22:21 | 51.09742 | -29.31533 | 36219 ft | 449 kts | 258° |
| 2026-05-05 22:21 | 51.06391 | -29.55437 | 36209 ft | 444 kts | 258° |
| 2026-05-05 22:22 | 51.03048 | -29.78907 | 36212 ft | 442 kts | 257° |
| 2026-05-05 22:22 | 50.99631 | -30.02542 | 36217 ft | 449 kts | 257° |
| 2026-05-05 22:23 | 50.98053 | -30.26750 | 36208 ft | 440 kts | 265° |
| 2026-05-05 22:23 | 50.96873 | -30.50750 | 36193 ft | 448 kts | 265° |
| 2026-05-05 22:24 | 50.95504 | -30.74922 | 36185 ft | 444 kts | 264° |
| 2026-05-05 22:24 | 50.94037 | -30.98894 | 36182 ft | 439 kts | 263° |
| 2026-05-05 22:25 | 50.92491 | -31.22897 | 36171 ft | 447 kts | 263° |
| 2026-05-05 22:25 | 50.90905 | -31.46608 | 36161 ft | 432 kts | 263° |
| 2026-05-05 22:26 | 50.89266 | -31.70265 | 36165 ft | 443 kts | 262° |
| 2026-05-05 22:26 | 50.87539 | -31.94449 | 36156 ft | 444 kts | 262° |
| 2026-05-05 22:27 | 50.85813 | -32.17924 | 36135 ft | 436 kts | 262° |
| 2026-05-05 22:27 | 50.84006 | -32.41799 | 36177 ft | 447 kts | 262° |
| 2026-05-05 22:28 | 50.82138 | -32.65820 | 36157 ft | 439 kts | 261° |
| 2026-05-05 22:28 | 50.80266 | -32.89264 | 36321 ft | 444 kts | 261° |
| 2026-05-05 22:28 | 50.79282 | -33.01330 | 36200 ft | 446 kts | 261° |
| 2026-05-05 22:29 | 50.78297 | -33.13287 | 36148 ft | 439 kts | 261° |
| 2026-05-05 22:29 | 50.76331 | -33.36681 | 36167 ft | 436 kts | 261° |
| 2026-05-05 22:30 | 50.74291 | -33.60343 | 36171 ft | 445 kts | 261° |
| 2026-05-05 22:30 | 50.72213 | -33.83915 | 36168 ft | 433 kts | 260° |
| 2026-05-05 22:31 | 50.70096 | -34.07331 | 36201 ft | 442 kts | 260° |
| 2026-05-05 22:31 | 50.67889 | -34.31212 | 36157 ft | 441 kts | 260° |
| 2026-05-05 22:32 | 50.65690 | -34.54481 | 36203 ft | 436 kts | 260° |
| 2026-05-05 22:32 | 50.63404 | -34.78117 | 36197 ft | 447 kts | 259° |
| 2026-05-05 22:33 | 50.61078 | -35.01691 | 36189 ft | 435 kts | 259° |
| 2026-05-05 22:33 | 50.58735 | -35.24910 | 36210 ft | 443 kts | 259° |
| 2026-05-05 22:34 | 50.56287 | -35.48682 | 36192 ft | 442 kts | 259° |
| 2026-05-05 22:34 | 50.53842 | -35.71956 | 36213 ft | 436 kts | 258° |
| 2026-05-05 22:35 | 50.51310 | -35.95555 | 36209 ft | 447 kts | 259° |
| 2026-05-05 22:35 | 50.48758 | -36.18910 | 36200 ft | 435 kts | 259° |
| 2026-05-05 22:36 | 50.46162 | -36.42186 | 36195 ft | 444 kts | 259° |
| 2026-05-05 22:36 | 50.43458 | -36.65991 | 36202 ft | 444 kts | 258° |
| 2026-05-05 22:37 | 50.40783 | -36.89117 | 36205 ft | 437 kts | 258° |
| 2026-05-05 22:37 | 50.38008 | -37.12640 | 36195 ft | 448 kts | 258° |
| 2026-05-05 22:38 | 50.35205 | -37.36007 | 36201 ft | 437 kts | 258° |
| 2026-05-05 22:38 | 50.32362 | -37.59268 | 36206 ft | 445 kts | 258° |
| 2026-05-05 22:39 | 50.29431 | -37.82837 | 36207 ft | 445 kts | 257° |
| 2026-05-05 22:39 | 50.26505 | -38.05985 | 36201 ft | 441 kts | 257° |
| 2026-05-05 22:40 | 50.23489 | -38.29411 | 36199 ft | 450 kts | 257° |
| 2026-05-05 22:40 | 50.20426 | -38.52839 | 36200 ft | 437 kts | 257° |
| 2026-05-05 22:41 | 50.17374 | -38.75786 | 36210 ft | 446 kts | 257° |
| 2026-05-05 22:41 | 50.14189 | -38.99353 | 36213 ft | 444 kts | 257° |
| 2026-05-05 22:42 | 50.11034 | -39.22334 | 36206 ft | 438 kts | 257° |
| 2026-05-05 22:42 | 50.07805 | -39.45469 | 36193 ft | 449 kts | 257° |
| 2026-05-05 22:43 | 50.04505 | -39.68763 | 36183 ft | 439 kts | 256° |
| 2026-05-05 22:43 | 50.01205 | -39.91703 | 36179 ft | 448 kts | 256° |
| 2026-05-05 22:44 | 49.98559 | -40.15376 | 36207 ft | 446 kts | 264° |
| 2026-05-05 22:44 | 49.97509 | -40.38830 | 36164 ft | 444 kts | 264° |
| 2026-05-05 22:45 | 49.96230 | -40.62750 | 36177 ft | 453 kts | 264° |
| 2026-05-05 22:45 | 49.94828 | -40.86505 | 36174 ft | 440 kts | 263° |
| 2026-05-05 22:46 | 49.93790 | -41.03157 | 36178 ft | 448 kts | 263° |
| 2026-05-05 22:46 | 49.92231 | -41.27216 | 36165 ft | 453 kts | 263° |
| 2026-05-05 22:47 | 49.90637 | -41.50937 | 36158 ft | 442 kts | 263° |
| 2026-05-05 22:47 | 49.88982 | -41.74718 | 36156 ft | 455 kts | 263° |
| 2026-05-05 22:48 | 49.87270 | -41.98614 | 36147 ft | 446 kts | 263° |
| 2026-05-05 22:48 | 49.85538 | -42.22084 | 36145 ft | 447 kts | 263° |
| 2026-05-05 22:49 | 49.83716 | -42.46071 | 36142 ft | 454 kts | 263° |
| 2026-05-05 22:49 | 49.81869 | -42.69748 | 36143 ft | 439 kts | 262° |
| 2026-05-05 22:50 | 49.80000 | -42.93063 | 36136 ft | 451 kts | 262° |
| 2026-05-05 22:50 | 49.78037 | -43.16934 | 36123 ft | 448 kts | 262° |
| 2026-05-05 22:51 | 49.76071 | -43.40261 | 36130 ft | 442 kts | 263° |
| 2026-05-05 22:51 | 49.74037 | -43.63799 | 36126 ft | 454 kts | 263° |
| 2026-05-05 22:52 | 49.71939 | -43.87489 | 36130 ft | 442 kts | 262° |
| 2026-05-05 22:52 | 49.69839 | -44.10674 | 36130 ft | 447 kts | 262° |
| 2026-05-05 22:53 | 49.67643 | -44.34357 | 36127 ft | 451 kts | 262° |
| 2026-05-05 22:53 | 49.65434 | -44.57653 | 36116 ft | 437 kts | 262° |
| 2026-05-05 22:54 | 49.63191 | -44.80803 | 36125 ft | 450 kts | 262° |
| 2026-05-05 22:54 | 49.60864 | -45.04300 | 36119 ft | 442 kts | 262° |
| 2026-05-05 22:55 | 49.58547 | -45.27218 | 36120 ft | 441 kts | 262° |
| 2026-05-05 22:55 | 49.56132 | -45.50626 | 36100 ft | 449 kts | 262° |
| 2026-05-05 22:56 | 49.53708 | -45.73639 | 36112 ft | 436 kts | 261° |
| 2026-05-05 22:56 | 49.51239 | -45.96639 | 36096 ft | 448 kts | 261° |
| 2026-05-05 22:57 | 49.48699 | -46.19833 | 36087 ft | 439 kts | 261° |
| 2026-05-05 22:57 | 49.46154 | -46.42641 | 36083 ft | 440 kts | 261° |
| 2026-05-05 22:58 | 49.43519 | -46.65816 | 36091 ft | 448 kts | 261° |
| 2026-05-05 22:58 | 49.40874 | -46.88649 | 36092 ft | 435 kts | 261° |
| 2026-05-05 22:59 | 49.38117 | -47.12050 | 36079 ft | 449 kts | 261° |
| 2026-05-05 22:59 | 49.35310 | -47.35423 | 36075 ft | 441 kts | 261° |
| 2026-05-05 23:00 | 49.31120 | -47.69567 | 36073 ft | 446 kts | 261° |
| 2026-05-05 23:00 | 49.28186 | -47.92966 | 36059 ft | 441 kts | 261° |
| 2026-05-05 23:01 | 49.25300 | -48.15586 | 36066 ft | 436 kts | 261° |
| 2026-05-05 23:01 | 49.22354 | -48.38340 | 36065 ft | 446 kts | 261° |
| 2026-05-05 23:02 | 49.19367 | -48.60986 | 36055 ft | 433 kts | 261° |
| 2026-05-05 23:02 | 49.16357 | -48.83491 | 36076 ft | 442 kts | 261° |
| 2026-05-05 23:03 | 49.13261 | -49.06251 | 36064 ft | 438 kts | 261° |
| 2026-05-05 23:03 | 49.10194 | -49.28442 | 36061 ft | 432 kts | 261° |
| 2026-05-05 23:04 | 49.07024 | -49.51090 | 36051 ft | 444 kts | 261° |
| 2026-05-05 23:04 | 49.03801 | -49.73700 | 36055 ft | 431 kts | 261° |
| 2026-05-05 23:05 | 49.00402 | -49.96010 | 36042 ft | 443 kts | 256° |
| 2026-05-05 23:05 | 48.95419 | -50.18239 | 36047 ft | 443 kts | 255° |
| 2026-05-05 23:06 | 48.90348 | -50.39637 | 36050 ft | 435 kts | 255° |
| 2026-05-05 23:06 | 48.85099 | -50.61346 | 36037 ft | 447 kts | 255° |
| 2026-05-05 23:07 | 48.79758 | -50.83041 | 36031 ft | 434 kts | 254° |
| 2026-05-05 23:07 | 48.74495 | -51.04214 | 36048 ft | 443 kts | 254° |
| 2026-05-05 23:08 | 48.69030 | -51.25947 | 36029 ft | 441 kts | 254° |
| 2026-05-05 23:08 | 48.63695 | -51.46932 | 36053 ft | 432 kts | 255° |
| 2026-05-05 23:09 | 48.58262 | -51.68161 | 36047 ft | 445 kts | 254° |
| 2026-05-05 23:09 | 48.52737 | -51.89481 | 36048 ft | 433 kts | 254° |
| 2026-05-05 23:10 | 48.47443 | -52.10321 | 36059 ft | 433 kts | 256° |
| 2026-05-05 23:10 | 48.42345 | -52.31694 | 35756 ft | 442 kts | 256° |
| 2026-05-05 23:11 | 48.39781 | -52.42292 | 36091 ft | 431 kts | 255° |
| 2026-05-05 23:11 | 48.37254 | -52.52688 | 36032 ft | 432 kts | 255° |
| 2026-05-05 23:11 | 48.32039 | -52.73996 | 36076 ft | 443 kts | 255° |
| 2026-05-05 23:12 | 48.26796 | -52.95132 | 36054 ft | 432 kts | 255° |
| 2026-05-05 23:12 | 48.21558 | -53.16091 | 36068 ft | 439 kts | 255° |
| 2026-05-05 23:13 | 48.16166 | -53.37440 | 36067 ft | 438 kts | 255° |
| 2026-05-05 23:13 | 48.10916 | -53.58005 | 36073 ft | 428 kts | 255° |
| 2026-05-05 23:14 | 48.05502 | -53.79091 | 36072 ft | 442 kts | 254° |
| 2026-05-05 23:14 | 48.00053 | -54.00052 | 36084 ft | 432 kts | 254° |
| 2026-05-05 23:15 | 47.94709 | -54.20448 | 36071 ft | 432 kts | 255° |
| 2026-05-05 23:15 | 47.89246 | -54.41145 | 36077 ft | 441 kts | 254° |
| 2026-05-05 23:16 | 47.83641 | -54.62118 | 36062 ft | 426 kts | 255° |
| 2026-05-05 23:16 | 47.78184 | -54.82433 | 36095 ft | 439 kts | 253° |
| 2026-05-05 23:17 | 47.72491 | -55.03404 | 36083 ft | 438 kts | 253° |
| 2026-05-05 23:17 | 47.66881 | -55.23862 | 36089 ft | 428 kts | 253° |
| 2026-05-05 23:18 | 47.61189 | -55.44503 | 36077 ft | 441 kts | 253° |
| 2026-05-05 23:18 | 47.55461 | -55.65042 | 36066 ft | 432 kts | 252° |
| 2026-05-05 23:19 | 47.49798 | -55.85198 | 36088 ft | 433 kts | 252° |
| 2026-05-05 23:19 | 47.43957 | -56.05825 | 36098 ft | 439 kts | 252° |
| 2026-05-05 23:20 | 47.38199 | -56.25944 | 36085 ft | 425 kts | 252° |
| 2026-05-05 23:20 | 47.32382 | -56.46160 | 36064 ft | 439 kts | 252° |
| 2026-05-05 23:21 | 47.26460 | -56.66524 | 36074 ft | 430 kts | 251° |
| 2026-05-05 23:21 | 47.20637 | -56.86410 | 36074 ft | 436 kts | 251° |
| 2026-05-05 23:22 | 47.14566 | -57.06965 | 36061 ft | 437 kts | 251° |
| 2026-05-05 23:22 | 47.08628 | -57.26885 | 36067 ft | 429 kts | 250° |
| 2026-05-05 23:23 | 47.02626 | -57.46901 | 36046 ft | 441 kts | 250° |
| 2026-05-05 23:23 | 46.96528 | -57.67030 | 36039 ft | 429 kts | 249° |
| 2026-05-05 23:24 | 46.90437 | -57.87007 | 36056 ft | 438 kts | 249° |
| 2026-05-05 23:24 | 46.84255 | -58.07108 | 36040 ft | 436 kts | 249° |
| 2026-05-05 23:25 | 46.78199 | -58.26629 | 36039 ft | 427 kts | 249° |
| 2026-05-05 23:25 | 46.71972 | -58.46585 | 36053 ft | 440 kts | 249° |
| 2026-05-05 23:26 | 46.65725 | -58.66407 | 36028 ft | 427 kts | 248° |
| 2026-05-05 23:26 | 46.59571 | -58.85812 | 36032 ft | 435 kts | 248° |
| 2026-05-05 23:27 | 46.53206 | -59.05722 | 36032 ft | 436 kts | 248° |
| 2026-05-05 23:27 | 46.46967 | -59.25075 | 36053 ft | 428 kts | 248° |
| 2026-05-05 23:28 | 46.40583 | -59.44759 | 36002 ft | 441 kts | 248° |
| 2026-05-05 23:28 | 46.34137 | -59.64446 | 35995 ft | 428 kts | 248° |
| 2026-05-05 23:29 | 46.27764 | -59.83792 | 36029 ft | 439 kts | 248° |
| 2026-05-05 23:29 | 46.21152 | -60.03701 | 36011 ft | 436 kts | 248° |
| 2026-05-05 23:30 | 46.15803 | -60.19687 | 36015 ft | 431 kts | 248° |
| 2026-05-05 23:30 | 46.08128 | -60.42487 | 36019 ft | 442 kts | 247° |
| 2026-05-05 23:31 | 46.01544 | -60.61857 | 36011 ft | 427 kts | 247° |
| 2026-05-05 23:31 | 45.95029 | -60.80922 | 36023 ft | 442 kts | 246° |
| 2026-05-05 23:32 | 45.88303 | -61.00432 | 36023 ft | 433 kts | 246° |
| 2026-05-05 23:32 | 45.81699 | -61.19461 | 36040 ft | 436 kts | 246° |
| 2026-05-05 23:33 | 45.74921 | -61.38855 | 36014 ft | 439 kts | 246° |
| 2026-05-05 23:33 | 45.68205 | -61.57917 | 35999 ft | 428 kts | 246° |
| 2026-05-05 23:34 | 45.61435 | -61.77020 | 36027 ft | 442 kts | 245° |
| 2026-05-05 23:34 | 45.54619 | -61.96093 | 36015 ft | 428 kts | 245° |
| 2026-05-05 23:35 | 45.47857 | -62.14899 | 35992 ft | 437 kts | 245° |
| 2026-05-05 23:35 | 45.40890 | -62.34134 | 36015 ft | 438 kts | 244° |
| 2026-05-05 23:36 | 45.34043 | -62.52900 | 35967 ft | 435 kts | 244° |
| 2026-05-05 23:36 | 45.27050 | -62.71946 | 36029 ft | 442 kts | 244° |
| 2026-05-05 23:37 | 45.21600 | -62.86684 | 36024 ft | 434 kts | 244° |
| 2026-05-05 23:37 | 45.18812 | -62.94202 | 36002 ft | 440 kts | 244° |
| 2026-05-05 23:38 | 45.17409 | -62.97974 | 36123 ft | 441 kts | 244° |
| 2026-05-05 23:38 | 45.16028 | -63.01683 | 36024 ft | 438 kts | 244° |
| 2026-05-05 23:38 | 45.12864 | -63.10163 | 35991 ft | 438 kts | 244° |
| 2026-05-05 23:39 | 45.09285 | -63.19722 | 35868 ft | 444 kts | 244° |
| 2026-05-05 23:39 | 45.05722 | -63.29204 | 36059 ft | 443 kts | 244° |
| 2026-05-05 23:39 | 44.98533 | -63.48233 | 36001 ft | 434 kts | 244° |
| 2026-05-05 23:40 | 44.91471 | -63.66810 | 35984 ft | 447 kts | 243° |
| 2026-05-05 23:40 | 44.85787 | -63.81665 | 35973 ft | 438 kts | 243° |
| 2026-05-05 23:41 | 44.80498 | -63.95422 | 35961 ft | 442 kts | 243° |
| 2026-05-05 23:41 | 44.73464 | -64.13607 | 35995 ft | 440 kts | 243° |
| 2026-05-05 23:42 | 44.66446 | -64.31634 | 35952 ft | 443 kts | 243° |
| 2026-05-05 23:42 | 44.59279 | -64.49927 | 35983 ft | 445 kts | 243° |
| 2026-05-05 23:43 | 44.55728 | -64.58942 | 36218 ft | 436 kts | 243° |
| 2026-05-05 23:43 | 44.52253 | -64.67738 | 35850 ft | 438 kts | 242° |
| 2026-05-05 23:43 | 44.48753 | -64.76575 | 35966 ft | 445 kts | 242° |
| 2026-05-05 23:43 | 44.45137 | -64.85672 | 36019 ft | 450 kts | 242° |
| 2026-05-05 23:44 | 44.37938 | -65.03693 | 35949 ft | 436 kts | 242° |
| 2026-05-05 23:44 | 44.30753 | -65.21568 | 35949 ft | 448 kts | 242° |
| 2026-05-05 23:45 | 44.23403 | -65.39735 | 35959 ft | 444 kts | 242° |
| 2026-05-05 23:45 | 44.16233 | -65.57346 | 35998 ft | 440 kts | 241° |
| 2026-05-05 23:46 | 44.08984 | -65.75045 | 35973 ft | 450 kts | 240° |
| 2026-05-05 23:46 | 44.01660 | -65.92809 | 35971 ft | 436 kts | 241° |
| 2026-05-05 23:47 | 43.94273 | -66.10622 | 35993 ft | 451 kts | 241° |
| 2026-05-05 23:47 | 43.86784 | -66.28564 | 35951 ft | 444 kts | 241° |
| 2026-05-05 23:48 | 43.82058 | -66.39829 | 35972 ft | 447 kts | 241° |
| 2026-05-05 23:48 | 43.77462 | -66.50743 | 35967 ft | 445 kts | 240° |
| 2026-05-05 23:49 | 43.72313 | -66.62919 | 35966 ft | 446 kts | 241° |
| 2026-05-05 23:49 | 43.66025 | -66.77721 | 35960 ft | 446 kts | 240° |
| 2026-05-05 23:50 | 43.59751 | -66.92413 | 36035 ft | 444 kts | 240° |
| 2026-05-05 23:50 | 43.56434 | -67.00256 | 36049 ft | 447 kts | 241° |
| 2026-05-05 23:51 | 43.53325 | -67.07632 | 35955 ft | 447 kts | 241° |
| 2026-05-05 23:51 | 43.51777 | -67.11304 | 35830 ft | 445 kts | 241° |
| 2026-05-05 23:51 | 43.50224 | -67.14988 | 35948 ft | 447 kts | 241° |
| 2026-05-05 23:52 | 43.47107 | -67.22376 | 35949 ft | 445 kts | 241° |
| 2026-05-05 23:52 | 43.44000 | -67.29729 | 35952 ft | 445 kts | 241° |
| 2026-05-05 23:53 | 43.40908 | -67.37030 | 35942 ft | 445 kts | 241° |
| 2026-05-05 23:53 | 43.37771 | -67.44421 | 35934 ft | 446 kts | 241° |
| 2026-05-05 23:54 | 43.34655 | -67.51746 | 35923 ft | 447 kts | 241° |
| 2026-05-05 23:54 | 43.31508 | -67.59122 | 35938 ft | 446 kts | 241° |
| 2026-05-05 23:55 | 43.28370 | -67.66462 | 35933 ft | 444 kts | 240° |
| 2026-05-05 23:55 | 43.25247 | -67.73748 | 35930 ft | 444 kts | 240° |
| 2026-05-05 23:56 | 43.22120 | -67.81023 | 35935 ft | 445 kts | 240° |
| 2026-05-05 23:56 | 43.18978 | -67.88316 | 35938 ft | 445 kts | 240° |
| 2026-05-05 23:57 | 43.15839 | -67.95586 | 35932 ft | 447 kts | 240° |
| 2026-05-05 23:57 | 43.12669 | -68.02908 | 35932 ft | 445 kts | 240° |
| 2026-05-05 23:58 | 43.09511 | -68.10182 | 35928 ft | 447 kts | 240° |
| 2026-05-05 23:58 | 43.06340 | -68.17470 | 35928 ft | 446 kts | 240° |
| 2026-05-05 23:59 | 43.03171 | -68.24734 | 35929 ft | 446 kts | 241° |
| 2026-05-05 23:59 | 42.99989 | -68.32011 | 35923 ft | 445 kts | 241° |
| 2026-05-06 00:00 | 42.96831 | -68.39214 | 35929 ft | 446 kts | 241° |
| 2026-05-06 00:00 | 42.93637 | -68.46481 | 35925 ft | 446 kts | 241° |
| 2026-05-06 00:01 | 42.90446 | -68.53725 | 35920 ft | 446 kts | 241° |
| 2026-05-06 00:01 | 42.87264 | -68.60931 | 35928 ft | 446 kts | 241° |
| 2026-05-06 00:02 | 42.84039 | -68.68214 | 35927 ft | 447 kts | 240° |
| 2026-05-06 00:02 | 42.80798 | -68.75517 | 35940 ft | 446 kts | 240° |
| 2026-05-06 00:03 | 42.77599 | -68.82707 | 35934 ft | 446 kts | 240° |
| 2026-05-06 00:03 | 42.74368 | -68.89951 | 35946 ft | 446 kts | 240° |
| 2026-05-06 00:04 | 42.71154 | -68.97138 | 35945 ft | 448 kts | 241° |
| 2026-05-06 00:04 | 42.67911 | -69.04374 | 35936 ft | 445 kts | 241° |
| 2026-05-06 00:05 | 42.63066 | -69.15151 | 35935 ft | 447 kts | 241° |
| 2026-05-06 00:06 | 42.59827 | -69.22334 | 35926 ft | 445 kts | 241° |
| 2026-05-06 00:06 | 42.56613 | -69.29444 | 35926 ft | 444 kts | 241° |
| 2026-05-06 00:07 | 42.53371 | -69.36601 | 35935 ft | 447 kts | 242° |
| 2026-05-06 00:07 | 42.50122 | -69.43752 | 35932 ft | 446 kts | 242° |
| 2026-05-06 00:08 | 42.46885 | -69.50862 | 35925 ft | 448 kts | 242° |
| 2026-05-06 00:08 | 42.43628 | -69.57999 | 35942 ft | 446 kts | 242° |
| 2026-05-06 00:09 | 42.40377 | -69.65105 | 35936 ft | 447 kts | 241° |
| 2026-05-06 00:09 | 42.37148 | -69.72147 | 35933 ft | 448 kts | 242° |
| 2026-05-06 00:10 | 42.33848 | -69.79325 | 35935 ft | 447 kts | 242° |
| 2026-05-06 00:10 | 42.30561 | -69.86459 | 35947 ft | 449 kts | 242° |
| 2026-05-06 00:11 | 42.27253 | -69.93620 | 35924 ft | 450 kts | 242° |
| 2026-05-06 00:11 | 42.23934 | -70.00790 | 35917 ft | 449 kts | 242° |
| 2026-05-06 00:12 | 42.20661 | -70.07844 | 35922 ft | 452 kts | 242° |
| 2026-05-06 00:12 | 42.17345 | -70.14969 | 35916 ft | 446 kts | 242° |
| 2026-05-06 00:13 | 42.14025 | -70.22091 | 35930 ft | 448 kts | 242° |
| 2026-05-06 00:13 | 42.10715 | -70.29171 | 35923 ft | 448 kts | 242° |
| 2026-05-06 00:14 | 42.07423 | -70.36199 | 35918 ft | 445 kts | 242° |
| 2026-05-06 00:14 | 42.04189 | -70.43291 | 35919 ft | 446 kts | 247° |
| 2026-05-06 00:15 | 42.01754 | -70.50866 | 35921 ft | 441 kts | 251° |
| 2026-05-06 00:15 | 41.99400 | -70.58456 | 35917 ft | 440 kts | 251° |
| 2026-05-06 00:16 | 41.97021 | -70.66064 | 35932 ft | 445 kts | 250° |
| 2026-05-06 00:16 | 41.94620 | -70.73689 | 35934 ft | 441 kts | 250° |
| 2026-05-06 00:17 | 41.92226 | -70.81260 | 35931 ft | 443 kts | 250° |
| 2026-05-06 00:17 | 41.89822 | -70.88837 | 35935 ft | 444 kts | 250° |
| 2026-05-06 00:18 | 41.87417 | -70.96387 | 35929 ft | 438 kts | 250° |
| 2026-05-06 00:18 | 41.85018 | -71.03902 | 35928 ft | 443 kts | 250° |
| 2026-05-06 00:19 | 41.82593 | -71.11475 | 35931 ft | 442 kts | 250° |